Time;durP1;ratioP1;P1;durP2;ratioP2;P2;SDS_P1;SDS_P2;PMS_P1;PMS_P2;Temp;Humidity;BMP_temperature;BMP_pressure;BME280_temperature;BME280_humidity;BME280_pressure;Samples;Min_cycle;Max_cycle;Signal;HPM_P1;HPM_P2
2023/01/23 00:00:23;;;;;;;23.57;11.30;;;;;;;0.73;100.00;102812.06;4937302;29;20054;-86
2023/01/23 00:02:50;;;;;;;23.87;11.50;;;;;;;0.60;100.00;102809.63;4931592;29;20055;-86
2023/01/23 00:05:17;;;;;;;21.13;11.33;;;;;;;0.45;100.00;102817.47;4949171;29;20102;-87
2023/01/23 00:07:43;;;;;;;23.27;11.90;;;;;;;0.59;100.00;102817.31;4943268;28;20098;-86
2023/01/23 00:10:10;;;;;;;24.43;11.77;;;;;;;0.57;100.00;102812.03;4918266;29;20134;-86
2023/01/23 00:12:41;;;;;;;22.00;12.53;;;;;;;0.67;100.00;102816.91;4922134;29;21537;-86
2023/01/23 00:15:09;;;;;;;23.47;11.47;;;;;;;0.73;100.00;102805.97;4910902;29;20051;-86
2023/01/23 00:17:36;;;;;;;25.10;11.93;;;;;;;0.48;100.00;102808.94;4920307;29;20051;-86
2023/01/23 00:20:03;;;;;;;21.60;10.77;;;;;;;0.49;100.00;102810.72;4936437;29;20039;-87
2023/01/23 00:22:29;;;;;;;22.67;10.80;;;;;;;0.57;100.00;102810.31;4916224;29;20386;-86
2023/01/23 00:24:56;;;;;;;26.37;12.77;;;;;;;0.43;100.00;102820.81;4932053;29;20070;-88
2023/01/23 00:27:23;;;;;;;24.67;12.00;;;;;;;0.63;100.00;102819.28;4900359;29;20032;-87
2023/01/23 00:29:51;;;;;;;24.10;12.43;;;;;;;0.48;100.00;102815.03;4916911;29;20043;-86
2023/01/23 00:32:18;;;;;;;25.60;13.40;;;;;;;0.61;100.00;102818.31;4904208;29;20047;-86
2023/01/23 00:34:45;;;;;;;24.13;13.27;;;;;;;0.70;100.00;102817.09;4918611;29;20098;-85
2023/01/23 00:37:12;;;;;;;24.53;12.30;;;;;;;0.52;100.00;102827.41;4918341;29;20044;-86
2023/01/23 00:39:39;;;;;;;22.03;11.87;;;;;;;0.62;100.00;102822.69;4935951;29;20094;-86
2023/01/23 00:42:06;;;;;;;22.60;12.23;;;;;;;0.42;100.00;102832.91;4905338;29;20457;-86
2023/01/23 00:44:33;;;;;;;22.30;11.67;;;;;;;0.37;100.00;102829.16;4928081;29;20493;-86
2023/01/23 00:47:00;;;;;;;20.77;11.33;;;;;;;0.40;100.00;102837.09;4931544;29;20089;-86
2023/01/23 00:49:26;;;;;;;22.47;11.50;;;;;;;0.48;100.00;102843.63;4935192;29;20095;-86
2023/01/23 00:51:55;;;;;;;22.53;12.67;;;;;;;0.50;100.00;102831.59;4920492;29;20042;-86
2023/01/23 00:54:24;;;;;;;28.43;12.80;;;;;;;0.58;100.00;102847.63;4923454;28;20607;-87
2023/01/23 00:56:51;;;;;;;24.97;12.93;;;;;;;0.46;100.00;102847.84;4932150;29;20482;-87
2023/01/23 00:59:18;;;;;;;22.23;11.53;;;;;;;0.39;100.00;102848.31;4945717;29;20043;-87
2023/01/23 01:01:45;;;;;;;24.97;11.97;;;;;;;0.57;100.00;102857.13;4928654;29;20039;-86
2023/01/23 01:04:11;;;;;;;24.37;12.17;;;;;;;0.68;100.00;102846.47;4927455;29;20528;-86
2023/01/23 01:06:38;;;;;;;23.10;11.33;;;;;;;0.57;100.00;102845.84;4932545;29;20428;-86
2023/01/23 01:09:05;;;;;;;23.37;11.87;;;;;;;0.64;100.00;102847.97;4962186;28;20058;-86
2023/01/23 01:11:31;;;;;;;25.60;12.77;;;;;;;0.54;100.00;102856.09;4935237;29;20560;-86
2023/01/23 01:14:00;;;;;;;22.20;11.90;;;;;;;0.56;100.00;102854.47;4916596;29;20048;-86
2023/01/23 01:16:26;;;;;;;23.33;11.67;;;;;;;0.70;100.00;102856.13;4912752;29;20066;-86
2023/01/23 01:18:53;;;;;;;27.43;12.70;;;;;;;0.47;100.00;102857.44;4919852;29;20067;-86
2023/01/23 01:21:20;;;;;;;24.33;12.90;;;;;;;0.41;100.00;102858.81;4943260;29;20062;-86
2023/01/23 01:23:47;;;;;;;20.63;11.00;;;;;;;0.32;100.00;102864.38;4922599;29;20043;-86
2023/01/23 01:26:13;;;;;;;24.53;12.83;;;;;;;0.31;100.00;102857.41;4939008;29;20480;-85
2023/01/23 01:28:41;;;;;;;26.13;13.87;;;;;;;0.52;100.00;102863.81;4923510;29;20047;-86
2023/01/23 01:31:10;;;;;;;24.93;13.10;;;;;;;0.52;100.00;102862.91;4928317;29;20437;-86
2023/01/23 01:33:39;;;;;;;24.53;12.13;;;;;;;0.41;100.00;102869.19;4919623;29;20048;-86
2023/01/23 01:36:13;;;;;;;24.90;12.20;;;;;;;0.40;100.00;102875.22;4919767;29;20130;-87
2023/01/23 01:38:40;;;;;;;23.58;12.75;;;;;;;0.37;100.00;102878.56;4936596;29;20416;-86
2023/01/23 01:41:07;;;;;;;30.17;14.43;;;;;;;0.55;100.00;102884.78;4935507;29;20057;-86
2023/01/23 01:43:34;;;;;;;25.63;12.20;;;;;;;0.44;100.00;102872.88;4940860;29;20073;-86
2023/01/23 01:46:11;;;;;;;25.57;13.83;;;;;;;0.55;100.00;102878.69;4933670;29;20039;-86
2023/01/23 01:48:46;;;;;;;24.80;12.60;;;;;;;0.43;100.00;102870.22;4947585;29;20039;-86
2023/01/23 01:51:20;;;;;;;24.67;12.47;;;;;;;0.57;100.00;102864.94;4920999;29;20043;-87
2023/01/23 01:53:54;;;;;;;28.53;13.73;;;;;;;0.54;100.00;102864.78;4903858;29;20126;-86
2023/01/23 01:56:21;;;;;;;22.73;12.55;;;;;;;0.64;100.00;102867.91;4903816;29;20047;-88
2023/01/23 01:58:50;;;;;;;26.13;12.87;;;;;;;0.48;100.00;102876.53;4953338;28;20042;-86
2023/01/23 02:01:17;;;;;;;31.23;14.17;;;;;;;0.43;100.00;102875.41;4927847;29;20049;-86
2023/01/23 02:03:44;;;;;;;27.87;13.30;;;;;;;0.45;100.00;102866.88;4916728;29;20043;-87
2023/01/23 02:06:11;;;;;;;24.40;12.33;;;;;;;0.51;100.00;102875.03;4916333;29;20047;-87
2023/01/23 02:08:51;;;;;;;24.50;14.50;;;;;;;0.68;100.00;102869.88;4932672;29;20054;-87
2023/01/23 02:11:18;;;;;;;26.90;12.73;;;;;;;0.70;100.00;102870.84;4912322;29;20055;-86
2023/01/23 02:13:45;;;;;;;27.10;14.10;;;;;;;0.54;100.00;102876.91;4939093;29;20039;-87
2023/01/23 02:16:17;;;;;;;29.77;13.50;;;;;;;0.54;100.00;102876.91;4954522;29;20050;-87
2023/01/23 02:18:47;;;;;;;28.60;14.70;;;;;;;0.61;100.00;102875.53;4939124;29;20036;-87
2023/01/23 02:21:16;;;;;;;25.70;13.20;;;;;;;0.48;100.00;102884.34;4923479;29;20059;-87
2023/01/23 02:23:49;;;;;;;24.67;13.07;;;;;;;0.45;100.00;102885.09;4922761;29;20038;-88
2023/01/23 02:26:19;;;;;;;28.40;14.57;;;;;;;0.45;100.00;102886.78;4969962;28;20047;-87
2023/01/23 02:28:48;;;;;;;34.47;14.33;;;;;;;0.52;100.00;102889.81;4919887;29;20053;-88
2023/01/23 02:31:17;;;;;;;25.50;13.33;;;;;;;0.56;100.00;102891.75;4923768;29;20588;-87
2023/01/23 02:33:53;;;;;;;25.67;12.50;;;;;;;0.44;100.00;102896.28;4942360;29;20145;-87
2023/01/23 02:36:23;;;;;;;27.27;13.03;;;;;;;0.47;100.00;102896.47;4941308;29;20521;-87
2023/01/23 02:39:03;;;;;;;27.37;14.23;;;;;;;0.48;100.00;102899.94;4926293;28;20043;-88
2023/01/23 02:41:39;;;;;;;27.77;13.77;;;;;;;0.50;100.00;102895.72;4924950;29;20039;-88
2023/01/23 02:44:33;;;;;;;26.47;12.60;;;;;;;0.39;100.00;102895.13;4910487;29;20050;-86
2023/01/23 02:47:04;;;;;;;30.50;13.57;;;;;;;0.59;100.00;102893.66;4928503;29;20043;-87
2023/01/23 02:49:31;;;;;;;30.13;14.00;;;;;;;0.63;100.00;102894.72;4921643;29;20035;-87
2023/01/23 02:51:58;;;;;;;29.83;12.77;;;;;;;0.59;100.00;102898.88;4950604;28;20600;-87
2023/01/23 02:54:24;;;;;;;27.80;13.47;;;;;;;0.60;100.00;102897.16;4947768;29;20394;-87
2023/01/23 02:56:51;;;;;;;26.37;13.47;;;;;;;0.50;100.00;102899.22;4903916;29;20040;-87
2023/01/23 03:02:04;;;;;;;29.40;12.43;;;;;;;0.63;100.00;102906.03;4909327;29;20054;-87
2023/01/23 03:04:31;;;;;;;25.87;11.57;;;;;;;0.50;100.00;102908.72;4937711;29;20047;-88
2023/01/23 03:06:58;;;;;;;20.80;11.87;;;;;;;0.45;100.00;102912.78;4937995;29;20090;-87
2023/01/23 03:09:25;;;;;;;28.13;14.03;;;;;;;0.65;100.00;102907.00;4935711;29;20671;-87
2023/01/23 03:11:51;;;;;;;27.43;14.07;;;;;;;0.50;100.00;102906.13;4969027;28;20047;-87
2023/01/23 03:14:20;;;;;;;26.90;14.03;;;;;;;0.56;100.00;102903.88;4938569;29;20496;-87
2023/01/23 03:16:52;;;;;;;24.03;12.40;;;;;;;0.52;100.00;102908.03;4934549;29;20091;-87
2023/01/23 03:19:22;;;;;;;24.97;12.33;;;;;;;0.71;100.00;102911.66;4909995;28;20042;-87
2023/01/23 03:21:49;;;;;;;27.83;13.40;;;;;;;0.55;100.00;102922.91;4953693;29;20127;-87
2023/01/23 03:24:16;;;;;;;22.27;11.03;;;;;;;0.58;100.00;102912.66;4938574;28;20497;-87
2023/01/23 03:26:45;;;;;;;22.17;11.17;;;;;;;0.40;100.00;102919.41;4941342;28;20515;-87
2023/01/23 03:32:00;;;;;;;23.17;11.37;;;;;;;0.38;100.00;102919.34;4934201;29;20050;-87
2023/01/23 03:34:27;;;;;;;23.93;11.57;;;;;;;0.60;100.00;102913.66;4950821;29;20052;-87
2023/01/23 03:36:54;;;;;;;25.20;11.77;;;;;;;0.53;100.00;102919.31;4926990;28;20102;-87
2023/01/23 03:42:06;;;;;;;25.60;11.40;;;;;;;0.43;100.00;102925.72;4925981;29;20051;-87
2023/01/23 03:44:33;;;;;;;23.33;12.07;;;;;;;0.68;100.00;102924.50;4970192;28;20040;-87
2023/01/23 03:46:59;;;;;;;21.63;11.43;;;;;;;0.51;100.00;102920.94;4953451;28;20106;-88
2023/01/23 03:49:26;;;;;;;24.90;12.10;;;;;;;0.33;100.00;102925.97;4906576;29;20098;-87
2023/01/23 03:51:53;;;;;;;21.40;10.73;;;;;;;0.36;100.00;102925.28;4938073;29;20043;-87
2023/01/23 03:54:19;;;;;;;24.73;11.60;;;;;;;0.46;100.00;102928.47;4937953;29;20055;-87
2023/01/23 03:56:46;;;;;;;23.33;12.00;;;;;;;0.35;100.00;102931.28;4938181;29;20035;-89
2023/01/23 03:59:13;;;;;;;20.40;11.47;;;;;;;0.31;100.00;102934.50;4971656;28;20097;-87
2023/01/23 04:01:39;;;;;;;21.50;11.37;;;;;;;0.50;100.00;102932.13;4941211;28;20455;-87
2023/01/23 04:04:06;;;;;;;22.97;11.13;;;;;;;0.40;100.00;102933.31;4922577;29;20047;-87
2023/01/23 04:06:33;;;;;;;22.13;11.83;;;;;;;0.40;100.00;102937.63;4949697;29;20040;-87
2023/01/23 04:08:59;;;;;;;26.77;12.27;;;;;;;0.34;100.00;102935.59;4950248;28;20539;-87
2023/01/23 04:11:26;;;;;;;20.17;11.30;;;;;;;0.45;100.00;102936.19;4921636;29;20047;-87
2023/01/23 04:13:53;;;;;;;24.23;11.37;;;;;;;0.44;100.00;102931.81;4917260;29;20035;-86
2023/01/23 04:16:23;;;;;;;22.27;11.33;;;;;;;0.41;100.00;102942.91;4953811;28;20098;-86
2023/01/23 04:18:51;;;;;;;19.70;10.90;;;;;;;0.42;100.00;102947.34;4936911;29;20047;-85
2023/01/23 04:21:17;;;;;;;23.03;11.30;;;;;;;0.34;100.00;102945.06;4952749;29;20044;-86
2023/01/23 04:23:44;;;;;;;24.57;11.57;;;;;;;0.28;100.00;102943.91;4937640;29;20047;-86
2023/01/23 04:26:11;;;;;;;24.13;11.93;;;;;;;0.48;100.00;102944.16;4939482;28;20062;-86
2023/01/23 04:28:38;;;;;;;22.03;11.43;;;;;;;0.39;100.00;102949.72;4918470;29;20490;-85
2023/01/23 04:31:05;;;;;;;23.77;12.60;;;;;;;0.59;100.00;102942.16;4945341;28;20044;-85
2023/01/23 04:33:32;;;;;;;23.67;12.33;;;;;;;0.30;100.00;102940.50;4922848;29;20043;-85
2023/01/23 04:36:03;;;;;;;20.80;10.87;;;;;;;0.36;100.00;102943.47;4922250;29;20049;-86
2023/01/23 04:38:31;;;;;;;24.50;11.03;;;;;;;0.32;100.00;102939.78;4934126;29;20040;-86
2023/01/23 04:40:59;;;;;;;20.20;10.30;;;;;;;0.34;100.00;102939.88;4917957;29;20098;-85
2023/01/23 04:43:25;;;;;;;21.13;11.17;;;;;;;0.49;100.00;102941.63;4919193;29;20044;-86
2023/01/23 04:45:53;;;;;;;20.27;10.93;;;;;;;0.41;100.00;102942.91;4933625;29;20043;-85
2023/01/23 04:48:20;;;;;;;20.70;10.33;;;;;;;0.35;100.00;102945.19;4925478;29;20511;-85
2023/01/23 04:50:47;;;;;;;23.43;11.97;;;;;;;0.43;100.00;102940.41;4968754;28;20043;-86
2023/01/23 04:53:14;;;;;;;20.60;11.43;;;;;;;0.41;100.00;102953.31;4935885;29;20035;-85
2023/01/23 04:55:41;;;;;;;24.60;12.10;;;;;;;0.49;100.00;102952.03;4918663;29;20046;-86
2023/01/23 04:58:10;;;;;;;20.90;11.57;;;;;;;0.29;100.00;102955.22;4914493;29;20751;-85
2023/01/23 05:00:37;;;;;;;22.57;11.03;;;;;;;0.23;100.00;102965.25;4925014;29;20051;-85
2023/01/23 05:03:04;;;;;;;24.33;12.20;;;;;;;0.25;100.00;102971.44;4931169;29;20102;-85
2023/01/23 05:05:31;;;;;;;23.30;12.30;;;;;;;0.33;100.00;102966.69;4928201;29;20044;-86
2023/01/23 05:07:58;;;;;;;25.20;12.13;;;;;;;0.50;100.00;102965.94;4937155;29;20039;-86
2023/01/23 05:10:25;;;;;;;30.00;13.40;;;;;;;0.51;100.00;102979.06;4916123;29;20493;-86
2023/01/23 05:12:51;;;;;;;25.73;12.33;;;;;;;0.42;100.00;102968.13;4919369;29;21004;-85
2023/01/23 05:15:20;;;;;;;28.10;12.10;;;;;;;0.49;100.00;102971.97;4902961;29;20051;-85
2023/01/23 05:17:48;;;;;;;26.03;12.60;;;;;;;0.35;100.00;102975.50;4919202;29;20531;-85
2023/01/23 05:20:15;;;;;;;25.57;12.67;;;;;;;0.48;100.00;102976.25;4922669;29;20059;-84
2023/01/23 05:22:53;;;;;;;20.77;11.40;;;;;;;0.41;100.00;102973.22;4919554;29;20047;-85
2023/01/23 05:25:25;;;;;;;24.50;12.33;;;;;;;0.33;100.00;102977.06;4959313;28;20043;-85
2023/01/23 05:27:51;;;;;;;25.30;12.47;;;;;;;0.30;100.00;102984.72;4964190;28;20123;-85
2023/01/23 05:30:21;;;;;;;24.57;12.47;;;;;;;0.12;100.00;102982.81;4942731;28;20054;-85
2023/01/23 05:32:48;;;;;;;27.20;13.23;;;;;;;0.26;100.00;102988.84;4927481;28;20507;-86
2023/01/23 05:35:14;;;;;;;23.87;12.47;;;;;;;0.33;100.00;102992.69;4927810;28;20082;-85
2023/01/23 05:37:41;;;;;;;23.93;12.20;;;;;;;0.43;100.00;102989.84;4925504;28;20035;-86
2023/01/23 05:40:10;;;;;;;19.23;11.00;;;;;;;0.38;100.00;102984.34;4936814;29;20047;-84
2023/01/23 05:42:37;;;;;;;21.57;11.27;;;;;;;0.41;100.00;102992.31;4920730;29;20212;-85
2023/01/23 05:45:04;;;;;;;23.10;11.90;;;;;;;0.47;100.00;102995.28;4920601;29;20087;-85
2023/01/23 05:47:30;;;;;;;24.30;11.80;;;;;;;0.33;100.00;102990.06;4929013;29;20090;-86
2023/01/23 05:49:57;;;;;;;27.47;12.23;;;;;;;0.40;100.00;103006.13;4923803;29;20126;-85
2023/01/23 05:52:24;;;;;;;28.20;12.97;;;;;;;0.39;100.00;103000.84;4937828;28;20102;-86
2023/01/23 05:54:50;;;;;;;24.67;12.10;;;;;;;0.29;100.00;103004.63;4955832;28;20082;-86
2023/01/23 05:57:17;;;;;;;23.50;11.63;;;;;;;0.54;100.00;103002.63;4956256;28;20563;-85
2023/01/23 05:59:44;;;;;;;21.03;11.27;;;;;;;0.41;100.00;103000.13;4940912;28;20051;-85
2023/01/23 06:02:10;;;;;;;23.33;12.37;;;;;;;0.31;100.00;103016.00;4953980;28;20417;-86
2023/01/23 06:04:37;;;;;;;24.80;12.93;;;;;;;0.36;100.00;103011.97;4948842;28;20549;-86
2023/01/23 06:07:04;;;;;;;23.47;12.13;;;;;;;0.45;100.00;103007.31;4943366;29;20070;-86
2023/01/23 06:09:30;;;;;;;23.10;11.83;;;;;;;0.26;100.00;103004.44;4933689;29;20094;-86
2023/01/23 06:11:57;;;;;;;24.37;12.60;;;;;;;0.42;100.00;103007.13;4952777;28;20714;-85
2023/01/23 06:14:24;;;;;;;29.33;14.43;;;;;;;0.52;100.00;103013.75;4919908;29;20429;-85
2023/01/23 06:16:50;;;;;;;26.77;13.80;;;;;;;0.43;100.00;103008.03;4937141;29;20063;-84
2023/01/23 06:19:17;;;;;;;24.80;12.07;;;;;;;0.32;100.00;103020.38;4953459;28;20051;-87
2023/01/23 06:21:44;;;;;;;24.13;12.40;;;;;;;0.38;100.00;103022.47;4938369;29;20043;-86
2023/01/23 06:24:10;;;;;;;20.80;11.63;;;;;;;0.35;100.00;103023.19;4933180;29;20043;-83
2023/01/23 06:26:37;;;;;;;23.80;13.00;;;;;;;0.23;100.00;103040.63;4917754;29;20051;-84
2023/01/23 06:29:04;;;;;;;25.87;11.27;;;;;;;0.20;100.00;103030.97;4919069;29;20048;-85
2023/01/23 06:31:31;;;;;;;22.40;11.57;;;;;;;0.33;100.00;103032.56;4919795;29;20055;-84
2023/01/23 06:33:58;;;;;;;26.83;13.27;;;;;;;0.36;100.00;103032.78;4954327;28;20049;-85
2023/01/23 06:36:25;;;;;;;25.47;12.67;;;;;;;0.23;100.00;103044.13;4930564;29;20040;-84
2023/01/23 06:38:52;;;;;;;27.57;12.80;;;;;;;0.25;100.00;103037.34;4947291;29;20083;-84
2023/01/23 06:41:19;;;;;;;27.97;12.83;;;;;;;0.13;100.00;103053.91;4919166;29;20456;-84
2023/01/23 06:43:46;;;;;;;24.83;12.10;;;;;;;0.18;100.00;103047.28;4936164;29;20040;-85
2023/01/23 06:46:12;;;;;;;24.50;12.87;;;;;;;0.24;100.00;103050.22;4939201;29;20055;-84
2023/01/23 06:48:39;;;;;;;23.70;12.23;;;;;;;0.48;100.00;103049.09;4940344;28;20043;-84
2023/01/23 06:51:05;;;;;;;23.10;11.30;;;;;;;0.26;100.00;103052.13;4928931;28;20043;-83
2023/01/23 06:53:32;;;;;;;24.33;12.00;;;;;;;0.27;100.00;103053.94;4928043;29;20057;-84
2023/01/23 06:56:04;;;;;;;26.27;13.00;;;;;;;0.38;100.00;103057.16;4941823;29;20051;-85
2023/01/23 06:58:31;;;;;;;19.23;10.07;;;;;;;0.30;100.00;103063.59;4926147;29;20039;-85
2023/01/23 07:00:58;;;;;;;30.43;13.33;;;;;;;0.37;100.00;103070.06;4929596;29;20047;-85
2023/01/23 07:03:25;;;;;;;20.97;11.30;;;;;;;0.48;100.00;103069.88;4909141;29;20165;-84
2023/01/23 07:05:52;;;;;;;25.80;12.23;;;;;;;0.34;100.00;103069.88;4923023;29;20046;-83
2023/01/23 07:08:18;;;;;;;25.37;12.00;;;;;;;0.22;100.00;103064.84;4928340;28;20039;-85
2023/01/23 07:10:48;;;;;;;22.33;11.60;;;;;;;0.15;100.00;103070.47;4952978;29;20054;-85
2023/01/23 07:13:14;;;;;;;26.43;12.80;;;;;;;0.36;100.00;103078.69;4956540;29;20043;-85
2023/01/23 07:15:41;;;;;;;24.70;12.27;;;;;;;0.40;100.00;103075.44;4956420;29;20047;-84
2023/01/23 07:18:08;;;;;;;29.57;12.80;;;;;;;0.31;100.00;103072.31;4970566;28;20118;-84
2023/01/23 07:20:37;;;;;;;23.40;11.93;;;;;;;0.24;100.00;103078.81;4917650;28;20170;-84
2023/01/23 07:23:03;;;;;;;24.43;11.40;;;;;;;0.16;100.00;103072.25;4955206;28;20571;-85
2023/01/23 07:25:30;;;;;;;23.93;12.77;;;;;;;0.15;100.00;103079.16;4906658;29;20074;-85
2023/01/23 07:27:57;;;;;;;25.87;12.77;;;;;;;0.39;100.00;103081.47;4936945;29;20043;-85
2023/01/23 07:30:24;;;;;;;23.30;12.03;;;;;;;0.41;100.00;103082.44;4953321;29;20110;-85
2023/01/23 07:32:51;;;;;;;27.37;12.73;;;;;;;0.50;100.00;103085.56;4921703;29;20047;-85
2023/01/23 07:35:18;;;;;;;21.80;11.77;;;;;;;0.40;100.00;103083.25;4939274;28;20047;-85
2023/01/23 07:37:44;;;;;;;25.53;11.87;;;;;;;0.46;100.00;103074.13;4922491;29;20497;-84
2023/01/23 07:40:11;;;;;;;24.87;12.60;;;;;;;0.44;100.00;103080.94;4940536;28;20039;-85
2023/01/23 07:42:40;;;;;;;27.37;12.13;;;;;;;0.27;100.00;103082.53;4958003;28;20169;-84
2023/01/23 07:45:08;;;;;;;25.47;13.10;;;;;;;0.35;100.00;103080.38;4927780;29;20047;-83
2023/01/23 07:47:36;;;;;;;27.13;12.73;;;;;;;0.47;100.00;103072.41;4936924;29;20492;-83
2023/01/23 07:50:03;;;;;;;22.77;12.50;;;;;;;0.39;100.00;103066.75;4910639;29;20039;-84
2023/01/23 07:52:29;;;;;;;25.77;11.47;;;;;;;0.47;100.00;103072.41;4922921;29;20051;-82
2023/01/23 07:54:56;;;;;;;26.57;12.23;;;;;;;0.46;100.00;103075.81;4924802;29;20051;-83
2023/01/23 07:57:22;;;;;;;25.73;12.27;;;;;;;0.49;100.00;103076.88;4936663;29;20610;-83
2023/01/23 07:59:49;;;;;;;24.73;12.60;;;;;;;0.59;100.00;103067.94;4937167;29;20043;-83
2023/01/23 08:02:16;;;;;;;24.03;12.87;;;;;;;0.53;100.00;103078.88;4936549;29;20047;-83
2023/01/23 08:04:42;;;;;;;26.20;14.67;;;;;;;0.54;100.00;103071.97;4936719;29;20043;-83
2023/01/23 08:07:09;;;;;;;27.80;13.10;;;;;;;0.35;100.00;103085.59;4936587;29;20043;-83
2023/01/23 08:09:36;;;;;;;27.93;13.23;;;;;;;0.37;100.00;103089.16;4936430;29;20031;-84
2023/01/23 08:12:02;;;;;;;25.17;13.13;;;;;;;0.31;100.00;103098.28;4932789;29;20042;-83
2023/01/23 08:14:29;;;;;;;26.90;13.50;;;;;;;0.48;100.00;103093.28;4922669;28;20043;-84
2023/01/23 08:16:56;;;;;;;25.57;13.20;;;;;;;0.47;100.00;103101.91;4928404;29;20047;-84
2023/01/23 08:19:26;;;;;;;25.60;14.10;;;;;;;0.51;100.00;103098.69;4959104;28;20031;-84
2023/01/23 08:21:53;;;;;;;25.13;13.17;;;;;;;0.54;100.00;103101.47;4915529;29;20107;-84
2023/01/23 08:24:20;;;;;;;29.30;13.53;;;;;;;0.63;100.00;103103.72;4920901;29;20043;-84
2023/01/23 08:26:47;;;;;;;25.40;12.33;;;;;;;0.64;100.00;103102.00;4923679;29;20057;-84
2023/01/23 08:29:14;;;;;;;24.77;14.03;;;;;;;0.47;100.00;103108.81;4907479;29;20110;-83
2023/01/23 08:31:40;;;;;;;24.93;12.53;;;;;;;0.58;100.00;103110.34;4943423;28;20058;-83
2023/01/23 08:34:07;;;;;;;24.43;12.37;;;;;;;0.31;100.00;103114.78;4941323;28;20582;-84
2023/01/23 08:36:34;;;;;;;27.57;12.83;;;;;;;0.42;100.00;103111.16;4973746;28;20057;-84
2023/01/23 08:39:00;;;;;;;27.53;13.77;;;;;;;0.46;100.00;103117.44;4913189;29;20089;-84
2023/01/23 08:41:27;;;;;;;23.63;12.63;;;;;;;0.55;100.00;103113.66;4934123;29;20050;-85
2023/01/23 08:43:56;;;;;;;25.40;13.07;;;;;;;0.43;100.00;103114.66;4934658;29;20047;-83
2023/01/23 08:46:23;;;;;;;27.33;13.37;;;;;;;0.69;100.00;103113.59;4936312;29;20483;-84
2023/01/23 08:48:49;;;;;;;24.27;12.40;;;;;;;0.45;100.00;103108.72;4936971;29;20508;-84
2023/01/23 08:51:16;;;;;;;22.90;11.87;;;;;;;0.39;100.00;103115.25;4921178;29;20047;-84
2023/01/23 08:53:42;;;;;;;25.37;11.97;;;;;;;0.61;100.00;103112.25;4937269;29;20096;-83
2023/01/23 08:56:14;;;;;;;24.90;12.30;;;;;;;0.48;100.00;103118.41;4936713;29;20039;-84
2023/01/23 08:58:43;;;;;;;25.47;13.07;;;;;;;0.64;100.00;103115.03;4911650;29;20039;-83
2023/01/23 09:01:11;;;;;;;23.30;12.20;;;;;;;0.63;100.00;103123.63;4926106;28;20054;-83
2023/01/23 09:03:38;;;;;;;20.57;11.17;;;;;;;0.80;100.00;103122.91;4925301;29;20090;-84
2023/01/23 09:06:05;;;;;;;21.67;11.30;;;;;;;0.75;100.00;103127.84;4934010;28;20043;-84
2023/01/23 09:08:32;;;;;;;25.43;10.90;;;;;;;0.62;100.00;103127.03;4914366;29;20405;-84
2023/01/23 09:11:01;;;;;;;24.87;11.83;;;;;;;0.63;100.00;103124.53;4939175;29;20047;-84
2023/01/23 09:13:29;;;;;;;24.67;12.40;;;;;;;0.81;100.00;103137.72;4940535;28;20059;-84
2023/01/23 09:15:55;;;;;;;23.10;11.70;;;;;;;0.71;100.00;103133.69;4940606;28;20043;-84
2023/01/23 09:18:23;;;;;;;23.47;12.07;;;;;;;0.76;100.00;103131.38;4925157;29;20130;-84
2023/01/23 09:20:51;;;;;;;22.37;12.20;;;;;;;0.65;100.00;103138.53;4940900;29;20043;-84
2023/01/23 09:23:18;;;;;;;21.53;12.27;;;;;;;0.77;100.00;103140.97;4937079;29;20055;-84
2023/01/23 09:25:45;;;;;;;23.60;12.07;;;;;;;0.73;100.00;103137.28;4938065;29;20040;-87
2023/01/23 09:28:11;;;;;;;23.37;12.17;;;;;;;0.72;100.00;103145.00;4954182;29;20042;-89
2023/01/23 09:30:38;;;;;;;20.50;10.43;;;;;;;0.87;100.00;103139.81;4938157;29;20106;-87
2023/01/23 09:33:05;;;;;;;21.17;11.17;;;;;;;0.92;100.00;103135.75;4954166;29;20146;-88
2023/01/23 09:35:33;;;;;;;21.50;11.40;;;;;;;0.86;100.00;103146.72;4953842;29;20047;-87
2023/01/23 09:38:05;;;;;;;23.70;10.83;;;;;;;1.00;100.00;103151.00;4953549;29;20054;-88
2023/01/23 09:40:47;;;;;;;20.10;10.67;;;;;;;0.92;100.00;103154.84;4938176;29;20520;-87
2023/01/23 09:43:36;;;;;;;20.80;11.03;;;;;;;0.86;100.00;103164.94;4938733;29;20075;-87
2023/01/23 09:46:40;;;;;;;23.97;12.23;;;;;;;0.91;100.00;103171.28;4922516;29;20486;-88
2023/01/23 09:49:20;;;;;;;19.13;10.37;;;;;;;1.02;100.00;103171.94;4922072;29;20039;-87
2023/01/23 09:51:55;;;;;;;19.77;10.93;;;;;;;1.02;100.00;103171.94;4922201;29;20043;-88
2023/01/23 09:54:30;;;;;;;18.67;10.37;;;;;;;0.92;100.00;103177.38;4953056;28;20048;-88
2023/01/23 09:57:00;;;;;;;22.30;10.60;;;;;;;0.92;100.00;103177.38;4921978;29;20421;-87
2023/01/23 09:59:38;;;;;;;21.43;10.03;;;;;;;0.88;100.00;103186.72;4922739;29;20107;-88
2023/01/23 10:02:21;;;;;;;25.00;13.50;;;;;;;0.90;100.00;103185.09;4922013;29;20066;-87
2023/01/23 10:04:52;;;;;;;24.13;13.83;;;;;;;0.82;100.00;103186.34;4922338;29;20044;-87
2023/01/23 10:07:41;;;;;;;24.13;13.73;;;;;;;0.90;100.00;103187.72;4954012;29;20117;-88
2023/01/23 10:10:35;;;;;;;20.27;11.30;;;;;;;1.13;100.00;103189.06;4922127;29;20134;-88
2023/01/23 10:13:15;;;;;;;16.37;10.10;;;;;;;0.87;100.00;103189.25;4936606;29;20044;-87
2023/01/23 10:16:05;;;;;;;21.00;10.87;;;;;;;0.87;100.00;103191.84;4954622;29;20052;-88
2023/01/23 10:18:38;;;;;;;20.17;11.10;;;;;;;0.75;100.00;103192.00;4922528;29;20119;-88
2023/01/23 10:21:12;;;;;;;18.38;10.07;;;;;;;0.90;100.00;103198.13;4931484;29;20047;-89
2023/01/23 10:23:47;;;;;;;19.37;10.40;;;;;;;1.03;100.00;103195.44;4954892;29;20070;-89
2023/01/23 10:26:17;;;;;;;18.73;10.17;;;;;;;0.98;100.00;103195.97;4927375;29;20043;-89
2023/01/23 10:28:45;;;;;;;17.80;10.13;;;;;;;0.96;100.00;103188.09;4908927;29;20104;-88
2023/01/23 10:31:38;;;;;;;18.33;10.27;;;;;;;0.77;100.00;103190.41;4905219;29;20130;-88
2023/01/23 10:34:08;;;;;;;20.63;10.70;;;;;;;0.98;100.00;103204.69;4941648;29;20099;-87
2023/01/23 10:36:46;;;;;;;16.90;9.90;;;;;;;1.09;100.00;103205.31;4962026;28;20036;-87
2023/01/23 10:39:40;;;;;;;22.67;11.20;;;;;;;1.23;100.00;103208.72;4921214;29;20035;-86
2023/01/23 10:42:10;;;;;;;18.57;10.77;;;;;;;1.20;100.00;103208.56;4924479;29;20198;-86
2023/01/23 10:44:37;;;;;;;20.17;10.27;;;;;;;1.02;100.00;103210.97;4950081;29;21399;-86
2023/01/23 10:47:13;;;;;;;19.70;10.67;;;;;;;0.98;100.00;103204.69;4919805;29;20105;-87
2023/01/23 10:49:43;;;;;;;17.93;10.03;;;;;;;1.01;100.00;103214.38;4932650;28;20114;-85
2023/01/23 10:52:37;;;;;;;21.13;9.90;;;;;;;1.25;100.00;103208.00;4911355;29;20051;-87
2023/01/23 10:55:25;;;;;;;22.73;12.33;;;;;;;1.24;100.00;103208.81;4917400;29;20055;-87
2023/01/23 10:57:54;;;;;;;16.80;9.80;;;;;;;1.02;100.00;103211.88;4931833;29;20035;-86
2023/01/23 11:00:44;;;;;;;21.20;11.10;;;;;;;1.25;100.00;103209.72;4931650;29;20048;-87
2023/01/23 11:03:26;;;;;;;21.97;11.17;;;;;;;1.17;100.00;103217.06;4938037;29;20043;-86
2023/01/23 11:06:02;;;;;;;17.33;8.97;;;;;;;0.92;100.00;103216.44;4937719;29;20043;-86
2023/01/23 11:08:30;;;;;;;20.23;11.63;;;;;;;1.07;100.00;103213.03;4913375;29;20498;-87
2023/01/23 11:11:18;;;;;;;18.67;10.33;;;;;;;1.16;100.00;103209.16;4935168;29;20067;-86
2023/01/23 11:14:23;;;;;;;20.07;10.63;;;;;;;1.14;100.00;103211.69;4953454;28;20047;-87
2023/01/23 11:17:17;;;;;;;19.75;10.93;;;;;;;1.16;100.00;103211.78;4923664;29;20082;-86
2023/01/23 11:19:46;;;;;;;25.35;10.98;;;;;;;0.98;100.00;103199.47;4900305;29;20047;-86
2023/01/23 11:22:30;;;;;;;20.10;11.10;;;;;;;1.07;100.00;103200.00;4918696;29;20048;-85
2023/01/23 11:24:57;;;;;;;;;;;;;;;0.90;100.00;103203.31;4922864;29;20489;-87
2023/01/23 11:27:29;;;;;;;17.40;9.90;;;;;;;1.01;100.00;103199.69;4938301;29;19922;-86